createdAt,value
2023-10-03T00:01:17.252Z,14.70
2023-10-03T00:04:00.158Z,14.70
2023-10-03T00:06:47.166Z,14.60
2023-10-03T00:09:46.209Z,14.60
2023-10-03T00:13:15.862Z,14.60
2023-10-03T00:16:06.338Z,14.50
2023-10-03T00:18:46.097Z,14.50
2023-10-03T00:21:58.747Z,14.50
2023-10-03T00:24:36.567Z,14.50
2023-10-03T00:27:18.850Z,14.40
2023-10-03T00:30:27.639Z,14.40
2023-10-03T00:33:24.884Z,14.40
2023-10-03T00:36:33.118Z,14.40
2023-10-03T00:39:19.812Z,14.40
2023-10-03T00:42:17.332Z,14.40
2023-10-03T00:46:11.640Z,14.40
2023-10-03T00:48:58.492Z,14.40
2023-10-03T00:51:42.356Z,14.30
2023-10-03T00:54:23.577Z,14.30
2023-10-03T00:57:00.726Z,14.30
2023-10-03T00:59:41.952Z,14.20
2023-10-03T01:02:42.370Z,14.20
2023-10-03T01:05:24.006Z,14.20
2023-10-03T01:08:30.947Z,14.10
2023-10-03T01:11:27.124Z,14.10
2023-10-03T01:14:38.225Z,14.10
2023-10-03T01:17:22.264Z,14.10
2023-10-03T01:20:09.302Z,14.10
2023-10-03T01:22:58.359Z,14.00
2023-10-03T01:26:03.871Z,14.10
2023-10-03T01:28:41.674Z,14.00
2023-10-03T01:31:38.713Z,14.00
2023-10-03T01:34:24.587Z,14.00
2023-10-03T01:37:15.584Z,13.90
2023-10-03T01:40:32.212Z,13.90
2023-10-03T01:43:37.834Z,13.90
2023-10-03T01:46:38.901Z,13.90
2023-10-03T01:49:31.394Z,13.90
2023-10-03T01:52:19.128Z,13.80
2023-10-03T01:55:14.459Z,13.80
2023-10-03T01:57:51.649Z,13.80
2023-10-03T02:00:26.680Z,13.80
2023-10-03T02:03:07.023Z,13.80
2023-10-03T02:06:01.160Z,13.80
2023-10-03T02:09:01.864Z,13.70
2023-10-03T02:11:44.522Z,13.70
2023-10-03T02:14:48.562Z,13.70
2023-10-03T02:17:59.608Z,13.70
2023-10-03T02:20:53.870Z,13.70
2023-10-03T02:23:38.251Z,13.70
2023-10-03T02:26:21.721Z,13.70
2023-10-03T02:28:58.571Z,13.70
2023-10-03T02:31:46.650Z,13.60
2023-10-03T02:34:23.266Z,13.60
2023-10-03T02:36:56.963Z,13.60
2023-10-03T02:39:53.347Z,13.60
2023-10-03T02:42:43.436Z,13.60
2023-10-03T02:45:23.868Z,13.60
2023-10-03T02:48:06.313Z,13.60
2023-10-03T02:50:56.490Z,13.60
2023-10-03T02:53:52.991Z,13.60
2023-10-03T02:56:54.455Z,13.70
2023-10-03T03:00:00.524Z,13.70
2023-10-03T03:03:04.126Z,13.70
2023-10-03T03:05:43.477Z,13.70
2023-10-03T03:08:36.241Z,13.70
2023-10-03T03:11:12.809Z,13.70
2023-10-03T03:13:54.870Z,13.70
2023-10-03T03:16:36.685Z,13.70
2023-10-03T03:19:13.155Z,13.70
2023-10-03T03:21:47.604Z,13.70
2023-10-03T03:24:49.583Z,13.70
2023-10-03T03:27:24.708Z,13.70
2023-10-03T03:30:32.802Z,13.70
2023-10-03T03:33:35.045Z,13.70
2023-10-03T03:36:09.411Z,13.70
2023-10-03T03:38:56.496Z,13.80
2023-10-03T03:42:00.715Z,13.80
2023-10-03T03:44:57.174Z,13.80
2023-10-03T03:48:02.121Z,13.80
2023-10-03T03:50:45.274Z,13.90
2023-10-03T03:53:40.604Z,13.90
2023-10-03T03:56:25.644Z,14.00
2023-10-03T03:59:15.887Z,14.00
2023-10-03T04:02:25.816Z,14.00
2023-10-03T04:05:25.052Z,14.00
2023-10-03T04:08:15.853Z,14.00
2023-10-03T04:10:54.477Z,14.00
2023-10-03T04:13:35.261Z,14.10
2023-10-03T04:16:46.266Z,14.10
2023-10-03T04:19:25.468Z,14.10
2023-10-03T04:22:12.629Z,14.10
2023-10-03T04:24:55.809Z,14.10
2023-10-03T04:27:29.991Z,14.00
2023-10-03T04:30:00.370Z,14.00
2023-10-03T04:33:34.014Z,14.10
2023-10-03T04:36:43.132Z,14.00
2023-10-03T04:39:51.378Z,14.10
2023-10-03T04:43:05.520Z,14.10
2023-10-03T04:45:50.479Z,14.10
2023-10-03T04:48:39.877Z,14.10
2023-10-03T04:51:20.627Z,14.10
2023-10-03T04:54:08.563Z,14.10
2023-10-03T04:56:41.919Z,14.10
2023-10-03T04:59:20.912Z,14.20
2023-10-03T05:01:58.081Z,14.20
2023-10-03T05:04:49.368Z,14.20
2023-10-03T05:07:29.366Z,14.20
2023-10-03T05:10:20.672Z,14.20
2023-10-03T05:13:23.553Z,14.20
2023-10-03T05:16:13.262Z,14.30
2023-10-03T05:19:00.569Z,14.20
2023-10-03T05:22:17.867Z,14.20
2023-10-03T05:25:13.662Z,14.20
2023-10-03T05:28:32.134Z,14.20
2023-10-03T05:31:17.379Z,14.20
2023-10-03T05:33:57.785Z,14.20
2023-10-03T05:36:36.326Z,14.20
2023-10-03T05:39:41.402Z,14.20
2023-10-03T05:42:28.624Z,14.20
2023-10-03T05:45:07.170Z,14.20
2023-10-03T05:47:57.889Z,14.30
2023-10-03T05:50:52.243Z,14.30
2023-10-03T05:53:25.432Z,14.40
2023-10-03T05:56:32.398Z,14.40
2023-10-03T05:59:10.272Z,14.50
2023-10-03T06:02:14.667Z,14.50
2023-10-03T06:04:59.637Z,14.60
2023-10-03T06:07:35.361Z,14.60
2023-10-03T06:10:26.010Z,14.70
2023-10-03T06:13:56.203Z,14.80
2023-10-03T06:16:40.688Z,14.90
2023-10-03T06:19:19.678Z,15.00
2023-10-03T06:21:57.818Z,15.30
2023-10-03T06:24:39.971Z,15.60
2023-10-03T06:27:15.980Z,16.00
2023-10-03T06:30:15.889Z,16.50
2023-10-03T06:33:13.581Z,17.00
2023-10-03T06:35:57.868Z,17.40
2023-10-03T06:38:43.257Z,17.90
2023-10-03T06:41:27.959Z,18.30
2023-10-03T06:44:09.496Z,18.70
2023-10-03T06:46:59.735Z,19.10
2023-10-03T06:49:55.447Z,19.40
2023-10-03T06:52:53.984Z,19.80
2023-10-03T06:55:54.603Z,20.10
2023-10-03T06:58:33.661Z,20.40
2023-10-03T07:01:46.864Z,20.70
2023-10-03T07:04:39.688Z,21.00
2023-10-03T07:07:38.771Z,21.20
2023-10-03T07:10:29.973Z,21.50
2023-10-03T07:13:12.802Z,21.70
2023-10-03T07:16:05.469Z,21.90
2023-10-03T07:18:45.323Z,22.10
2023-10-03T07:21:53.299Z,22.30
2023-10-03T07:24:59.345Z,22.50
2023-10-03T07:27:47.075Z,22.70
2023-10-03T07:30:54.942Z,22.90
2023-10-03T07:33:44.715Z,23.10
2023-10-03T07:36:42.238Z,23.20
2023-10-03T07:39:28.587Z,23.40
2023-10-03T07:42:19.576Z,23.50
2023-10-03T07:45:07.690Z,23.70
2023-10-03T07:47:59.801Z,23.80
2023-10-03T07:50:45.777Z,23.90
2023-10-03T07:53:32.364Z,24.10
2023-10-03T07:56:33.328Z,24.20
2023-10-03T07:59:27.230Z,24.30
2023-10-03T08:02:16.624Z,24.40
2023-10-03T08:05:09.691Z,24.50
2023-10-03T08:08:09.876Z,24.60
2023-10-03T08:11:00.354Z,24.70
2023-10-03T08:13:45.248Z,24.80
2023-10-03T08:16:50.446Z,24.80
2023-10-03T08:19:49.516Z,24.90
2023-10-03T08:22:24.340Z,25.00
2023-10-03T08:25:20.402Z,25.00
2023-10-03T08:27:52.889Z,25.10
2023-10-03T08:30:36.919Z,25.20
2023-10-03T08:33:38.013Z,25.20
2023-10-03T08:36:22.244Z,25.30
2023-10-03T08:39:13.948Z,25.40
2023-10-03T08:42:14.602Z,25.40
2023-10-03T08:45:24.114Z,25.40
2023-10-03T08:48:25.031Z,25.50
2023-10-03T08:51:18.729Z,25.60
2023-10-03T08:53:51.458Z,25.70
2023-10-03T08:56:41.709Z,25.70
2023-10-03T08:59:48.299Z,25.80
2023-10-03T09:02:32.482Z,25.80
2023-10-03T09:05:48.807Z,25.80
2023-10-03T09:09:11.829Z,25.80
2023-10-03T09:11:54.480Z,25.80
2023-10-03T09:14:26.969Z,25.80
2023-10-03T09:17:37.935Z,25.80
2023-10-03T09:20:49.029Z,25.80
2023-10-03T09:24:21.229Z,25.90
2023-10-03T09:26:56.665Z,25.90
2023-10-03T09:29:51.156Z,25.90
2023-10-03T09:32:56.175Z,25.90
2023-10-03T09:36:07.168Z,25.90
2023-10-03T09:39:05.033Z,26.00
2023-10-03T09:42:04.844Z,26.10
2023-10-03T09:44:49.977Z,26.10
2023-10-03T09:47:39.367Z,26.20
2023-10-03T09:50:26.890Z,26.30
2023-10-03T09:53:41.392Z,26.40
2023-10-03T09:56:39.212Z,26.50
2023-10-03T09:59:27.563Z,26.60
2023-10-03T10:02:17.849Z,26.60
2023-10-03T10:05:32.346Z,26.60
2023-10-03T10:08:41.547Z,26.70
2023-10-03T10:11:23.256Z,26.80
2023-10-03T10:14:11.584Z,26.90
2023-10-03T10:17:37.041Z,26.90
2023-10-03T10:20:39.362Z,27.00
2023-10-03T10:23:23.723Z,27.20
2023-10-03T10:26:36.472Z,27.30
2023-10-03T10:29:20.961Z,27.40
2023-10-03T10:31:59.739Z,27.40
2023-10-03T10:34:59.121Z,27.40
2023-10-03T10:38:08.394Z,27.50
2023-10-03T10:41:47.945Z,27.50
2023-10-03T10:44:40.543Z,27.60
2023-10-03T10:47:41.297Z,27.60
2023-10-03T10:50:27.676Z,27.60
2023-10-03T10:53:39.759Z,27.50
2023-10-03T10:56:36.861Z,27.40
2023-10-03T10:59:41.794Z,27.30
2023-10-03T11:02:20.066Z,27.20
2023-10-03T11:05:12.049Z,27.20
2023-10-03T11:08:29.893Z,27.00
2023-10-03T11:11:44.009Z,26.90
2023-10-03T11:14:50.911Z,26.90
2023-10-03T11:17:38.741Z,26.90
2023-10-03T11:20:14.107Z,26.90
2023-10-03T11:23:15.472Z,26.90
2023-10-03T11:26:15.224Z,27.00
2023-10-03T11:29:16.518Z,27.00
2023-10-03T11:32:02.972Z,27.00
2023-10-03T11:34:56.582Z,27.00
2023-10-03T11:37:45.530Z,27.10
2023-10-03T11:40:30.663Z,27.10
2023-10-03T11:43:09.928Z,27.20
2023-10-03T11:45:52.356Z,27.20
2023-10-03T11:48:35.184Z,27.20
2023-10-03T11:51:32.375Z,27.10
2023-10-03T11:54:24.121Z,27.10
2023-10-03T11:57:19.016Z,27.00
2023-10-03T12:00:07.466Z,26.90
2023-10-03T12:02:41.619Z,26.90
2023-10-03T12:05:32.317Z,26.80
2023-10-03T12:08:17.143Z,26.70
2023-10-03T12:11:04.021Z,26.70
2023-10-03T12:13:48.698Z,26.60
2023-10-03T12:16:26.317Z,26.50
2023-10-03T12:19:21.972Z,26.50
2023-10-03T12:22:23.713Z,26.40
2023-10-03T12:25:31.075Z,26.40
2023-10-03T12:28:36.299Z,26.30
2023-10-03T12:31:39.017Z,26.30
2023-10-03T12:34:22.395Z,26.30
2023-10-03T12:37:14.116Z,26.20
2023-10-03T12:40:02.683Z,26.20
2023-10-03T12:42:47.408Z,26.20
2023-10-03T12:45:34.254Z,26.20
2023-10-03T12:48:28.100Z,26.20
2023-10-03T12:51:20.466Z,26.10
2023-10-03T12:54:12.527Z,26.20
2023-10-03T12:56:57.260Z,26.20
2023-10-03T12:59:58.874Z,26.10
2023-10-03T13:02:58.319Z,26.10
2023-10-03T13:06:01.387Z,26.10
2023-10-03T13:08:55.926Z,26.00
2023-10-03T13:11:48.745Z,26.00
2023-10-03T13:14:54.314Z,25.90
2023-10-03T13:18:00.558Z,25.80
2023-10-03T13:20:34.649Z,25.70
2023-10-03T13:23:43.653Z,25.60
2023-10-03T13:26:30.358Z,25.60
2023-10-03T13:30:01.875Z,25.50
2023-10-03T13:32:46.197Z,25.50
2023-10-03T13:35:46.549Z,25.40
2023-10-03T13:38:50.644Z,25.40
2023-10-03T13:41:54.250Z,25.40
2023-10-03T13:44:29.951Z,25.40
2023-10-03T13:47:18.333Z,25.20
2023-10-03T13:50:05.876Z,25.10
2023-10-03T13:53:01.441Z,24.80
2023-10-03T13:55:54.200Z,24.30
2023-10-03T13:58:52.932Z,23.90
2023-10-03T14:02:13.690Z,23.30
2023-10-03T14:04:44.838Z,22.80
2023-10-03T14:07:25.464Z,22.40
2023-10-03T14:10:24.322Z,22.10
2023-10-03T14:13:05.015Z,21.70
2023-10-03T14:16:36.003Z,21.50
2023-10-03T14:19:42.828Z,21.30
2023-10-03T14:22:48.454Z,21.20
2023-10-03T14:26:03.423Z,21.10
2023-10-03T14:29:02.066Z,21.00
2023-10-03T14:32:02.655Z,21.00
2023-10-03T14:35:09.386Z,20.90
2023-10-03T14:38:07.396Z,20.80
2023-10-03T14:40:53.109Z,20.70
2023-10-03T14:44:05.614Z,20.60
2023-10-03T14:47:12.306Z,20.50
2023-10-03T14:50:12.601Z,20.40
2023-10-03T14:52:44.452Z,20.30
2023-10-03T14:55:40.652Z,20.20
2023-10-03T14:58:47.585Z,20.10
2023-10-03T15:01:38.266Z,20.00
2023-10-03T15:04:20.490Z,19.90
2023-10-03T15:07:26.069Z,19.80
2023-10-03T15:10:15.315Z,19.80
2023-10-03T15:13:33.280Z,19.70
2023-10-03T15:16:34.628Z,19.70
2023-10-03T15:19:25.744Z,19.70
2023-10-03T15:22:40.620Z,19.60
2023-10-03T15:25:26.738Z,19.60
2023-10-03T15:28:14.078Z,19.60
2023-10-03T15:30:59.655Z,19.50
2023-10-03T15:33:32.605Z,19.50
2023-10-03T15:36:18.487Z,19.50
2023-10-03T15:39:14.519Z,19.40
2023-10-03T15:42:09.370Z,19.40
2023-10-03T15:45:09.366Z,19.30
2023-10-03T15:47:45.999Z,19.30
2023-10-03T15:50:38.304Z,19.20
2023-10-03T15:53:38.705Z,19.10
2023-10-03T15:56:15.412Z,19.00
2023-10-03T15:59:01.441Z,18.80
2023-10-03T16:01:57.180Z,18.80
2023-10-03T16:05:01.829Z,18.70
2023-10-03T16:07:52.017Z,18.70
2023-10-03T16:10:52.150Z,18.70
2023-10-03T16:13:42.817Z,18.70
2023-10-03T16:16:28.753Z,18.80
2023-10-03T16:19:14.726Z,18.90
2023-10-03T16:21:56.395Z,18.90
2023-10-03T16:24:42.632Z,18.90
2023-10-03T16:27:31.019Z,18.90
2023-10-03T16:30:06.646Z,19.00
2023-10-03T16:32:58.790Z,19.00
2023-10-03T16:35:35.142Z,19.00
2023-10-03T16:38:17.297Z,19.00
2023-10-03T16:41:19.962Z,19.00
2023-10-03T16:44:17.396Z,19.00
2023-10-03T16:46:51.730Z,18.90
2023-10-03T16:49:37.188Z,18.90
2023-10-03T16:52:28.091Z,18.80
2023-10-03T16:55:48.235Z,18.80
2023-10-03T16:58:34.409Z,18.60
2023-10-03T17:01:26.543Z,18.60
2023-10-03T17:04:20.198Z,18.50
2023-10-03T17:07:12.625Z,18.40
2023-10-03T17:09:58.229Z,18.40
2023-10-03T17:12:33.888Z,18.30
2023-10-03T17:15:16.864Z,18.20
2023-10-03T17:17:59.244Z,18.20
2023-10-03T17:20:37.153Z,18.10
2023-10-03T17:23:30.230Z,18.00
2023-10-03T17:26:30.748Z,18.00
2023-10-03T17:29:15.564Z,17.90
2023-10-03T17:31:52.554Z,17.90
2023-10-03T17:34:38.481Z,17.80
2023-10-03T17:37:25.897Z,17.70
2023-10-03T17:40:33.737Z,17.70
2023-10-03T17:43:25.019Z,17.70
2023-10-03T17:46:40.968Z,17.60
2023-10-03T17:49:33.256Z,17.60
2023-10-03T17:52:28.363Z,17.60
2023-10-03T17:55:10.840Z,17.50
2023-10-03T17:58:27.274Z,17.50
2023-10-03T18:01:06.060Z,17.40
2023-10-03T18:04:09.988Z,17.40
2023-10-03T18:06:51.305Z,17.40
2023-10-03T18:10:15.828Z,17.30
2023-10-03T18:13:03.532Z,17.30
2023-10-03T18:16:02.414Z,17.20
2023-10-03T18:18:59.180Z,17.20
2023-10-03T18:21:39.738Z,17.20
2023-10-03T18:24:25.329Z,17.10
2023-10-03T18:27:40.983Z,17.10
2023-10-03T18:30:21.569Z,17.00
2023-10-03T18:33:07.468Z,17.10
2023-10-03T18:35:44.428Z,17.10
2023-10-03T18:38:34.905Z,17.10
2023-10-03T18:41:38.571Z,17.10
2023-10-03T18:45:18.792Z,17.10
2023-10-03T18:48:00.656Z,17.10
2023-10-03T18:50:34.388Z,17.10
2023-10-03T18:53:07.165Z,17.10
2023-10-03T18:56:00.307Z,17.10
2023-10-03T18:58:34.923Z,17.00
2023-10-03T19:01:48.617Z,17.00
2023-10-03T19:04:51.553Z,17.00
2023-10-03T19:08:22.748Z,17.00
2023-10-03T19:11:13.491Z,17.00
2023-10-03T19:14:15.384Z,16.90
2023-10-03T19:17:24.472Z,16.90
2023-10-03T19:20:17.681Z,16.90
2023-10-03T19:23:18.878Z,16.90
2023-10-03T19:26:03.599Z,16.80
2023-10-03T19:28:43.793Z,16.80
2023-10-03T19:31:30.672Z,16.80
2023-10-03T19:34:45.464Z,16.80
2023-10-03T19:37:50.448Z,16.80
2023-10-03T19:40:50.199Z,16.80
2023-10-03T19:43:46.781Z,16.80
2023-10-03T19:46:34.718Z,16.70
2023-10-03T19:49:23.817Z,16.70
2023-10-03T19:52:12.202Z,16.60
2023-10-03T19:55:12.265Z,16.50
2023-10-03T19:58:03.043Z,16.40
2023-10-03T20:01:10.115Z,16.40
2023-10-03T20:03:50.899Z,16.30
2023-10-03T20:06:38.526Z,16.30
2023-10-03T20:09:40.032Z,16.30
2023-10-03T20:12:43.658Z,16.30
2023-10-03T20:15:27.201Z,16.30
2023-10-03T20:18:20.689Z,16.20
2023-10-03T20:21:16.983Z,16.20
2023-10-03T20:24:03.462Z,16.10
2023-10-03T20:27:16.323Z,16.00
2023-10-03T20:29:58.233Z,15.90
2023-10-03T20:32:45.720Z,15.80
2023-10-03T20:35:29.829Z,15.70
2023-10-03T20:38:16.366Z,15.60
2023-10-03T20:40:59.389Z,15.50
2023-10-03T20:43:50.701Z,15.50
2023-10-03T20:46:35.345Z,15.40
2023-10-03T20:49:26.792Z,15.30
2023-10-03T20:52:23.234Z,15.20
2023-10-03T20:55:21.415Z,15.10
2023-10-03T20:58:26.673Z,15.00
2023-10-03T21:01:19.221Z,14.90
2023-10-03T21:04:20.232Z,14.90
2023-10-03T21:07:24.331Z,14.80
2023-10-03T21:10:06.463Z,14.70
2023-10-03T21:12:56.449Z,14.70
2023-10-03T21:15:30.314Z,14.70
2023-10-03T21:18:24.045Z,14.60
2023-10-03T21:21:09.945Z,14.60
2023-10-03T21:24:08.579Z,14.60
2023-10-03T21:27:08.951Z,14.50
2023-10-03T21:29:58.633Z,14.50
2023-10-03T21:33:07.432Z,14.40
2023-10-03T21:36:44.308Z,14.30
2023-10-03T21:39:32.403Z,14.20
2023-10-03T21:42:20.102Z,14.10
2023-10-03T21:44:55.709Z,14.10
2023-10-03T21:47:55.418Z,14.00
2023-10-03T21:50:58.460Z,14.00
2023-10-03T21:54:34.911Z,13.90
2023-10-03T21:57:12.098Z,13.90
2023-10-03T21:59:46.030Z,13.90
2023-10-03T22:02:23.661Z,13.80
2023-10-03T22:05:05.968Z,13.80
2023-10-03T22:07:39.233Z,13.80
2023-10-03T22:10:36.681Z,13.70
2023-10-03T22:13:18.510Z,13.70
2023-10-03T22:15:55.841Z,13.60
2023-10-03T22:18:56.391Z,13.60
2023-10-03T22:21:36.750Z,13.50
2023-10-03T22:24:09.225Z,13.50
2023-10-03T22:26:51.918Z,13.40
2023-10-03T22:29:34.840Z,13.40
2023-10-03T22:32:20.637Z,13.40
2023-10-03T22:35:00.824Z,13.40
2023-10-03T22:38:07.287Z,13.40
2023-10-03T22:41:12.839Z,13.40
2023-10-03T22:44:14.432Z,13.30
2023-10-03T22:46:58.186Z,13.40
2023-10-03T22:49:48.279Z,13.30
2023-10-03T22:52:54.526Z,13.20
2023-10-03T22:55:28.755Z,13.10
2023-10-03T22:58:16.113Z,13.10
2023-10-03T23:01:21.680Z,13.00
2023-10-03T23:04:05.862Z,13.00
2023-10-03T23:06:50.186Z,13.00
2023-10-03T23:10:05.140Z,12.90
2023-10-03T23:13:13.945Z,12.90
2023-10-03T23:15:50.046Z,12.90
2023-10-03T23:18:58.107Z,12.90
2023-10-03T23:21:32.952Z,12.90
2023-10-03T23:24:25.414Z,12.80
2023-10-03T23:27:20.884Z,12.80
2023-10-03T23:30:26.267Z,12.80
2023-10-03T23:33:01.072Z,12.80
2023-10-03T23:36:03.580Z,12.70
2023-10-03T23:39:04.293Z,12.70
2023-10-03T23:42:20.994Z,12.70
2023-10-03T23:45:15.148Z,12.70
2023-10-03T23:48:00.800Z,12.70
2023-10-03T23:50:43.843Z,12.60
2023-10-03T23:53:39.668Z,12.60
2023-10-03T23:56:36.475Z,12.60
2023-10-03T23:59:41.340Z,12.50
